Time;durP1;ratioP1;P1;durP2;ratioP2;P2;SDS_P1;SDS_P2;PMS_P1;PMS_P2;Temp;Humidity;BMP_temperature;BMP_pressure;BME280_temperature;BME280_humidity;BME280_pressure;Samples;Min_cycle;Max_cycle;Signal;HPM_P1;HPM_P2
2021/03/11 00:00:30;;;;;;;17.63;11.82;;;;;;;6.11;85.83;99119.31;5097377;28;20110;-74
2021/03/11 00:02:56;;;;;;;18.15;11.70;;;;;;;6.00;86.78;99082.00;5097225;28;20051;-74
2021/03/11 00:05:22;;;;;;;18.42;11.25;;;;;;;6.02;85.44;99114.59;5096914;28;20063;-73
2021/03/11 00:07:49;;;;;;;16.75;10.82;;;;;;;6.01;85.67;99094.31;5097543;28;20059;-73
2021/03/11 00:10:15;;;;;;;16.35;11.60;;;;;;;6.03;85.96;99086.28;5079790;28;20051;-75
2021/03/11 00:12:43;;;;;;;17.67;11.95;;;;;;;5.97;86.87;99074.22;5097980;28;20048;-72
2021/03/11 00:15:16;;;;;;;17.30;10.77;;;;;;;5.96;86.83;99076.06;5098456;28;20399;-73
2021/03/11 00:17:43;;;;;;;18.17;11.00;;;;;;;5.99;85.90;99077.63;5097465;28;20102;-73
2021/03/11 00:20:12;;;;;;;18.08;11.18;;;;;;;5.98;86.33;99068.00;5097393;28;20056;-73
2021/03/11 00:22:38;;;;;;;19.75;10.60;;;;;;;6.08;84.21;99085.09;5079271;28;20051;-73
2021/03/11 00:25:06;;;;;;;17.00;10.98;;;;;;;6.17;84.13;99086.34;5096980;28;20052;-73
2021/03/11 00:27:32;;;;;;;18.08;9.77;;;;;;;6.20;84.22;99072.88;5097071;28;20056;-73
2021/03/11 00:29:58;;;;;;;16.73;9.75;;;;;;;6.18;83.19;99073.94;5097065;28;20048;-74
2021/03/11 00:32:25;;;;;;;15.13;10.40;;;;;;;6.28;83.40;99051.25;5096980;28;20048;-73
2021/03/11 00:34:52;;;;;;;15.00;9.52;;;;;;;6.33;82.88;99066.84;5079157;28;20368;-73
2021/03/11 00:37:18;;;;;;;13.75;9.18;;;;;;;6.39;82.31;99050.56;5095785;28;20048;-73
2021/03/11 00:39:44;;;;;;;16.17;9.65;;;;;;;6.43;82.21;99067.13;5096618;28;20080;-73
2021/03/11 00:42:13;;;;;;;15.02;10.02;;;;;;;6.44;82.97;99043.19;5096650;28;20143;-73
2021/03/11 00:44:39;;;;;;;14.00;9.13;;;;;;;6.49;82.80;99050.84;5096605;28;20449;-74
2021/03/11 00:47:06;;;;;;;13.70;9.10;;;;;;;6.52;82.04;99043.56;5096837;28;20044;-74
2021/03/11 00:49:36;;;;;;;15.25;8.77;;;;;;;6.55;82.69;99053.13;5096810;28;20074;-74
2021/03/11 00:52:04;;;;;;;13.82;8.45;;;;;;;6.54;81.77;99048.75;5096723;28;20391;-74
2021/03/11 00:54:30;;;;;;;14.32;9.07;;;;;;;6.50;82.07;99047.25;5096478;28;20048;-74
2021/03/11 00:56:56;;;;;;;13.52;8.93;;;;;;;6.51;82.09;99044.53;5095263;28;20075;-74
2021/03/11 00:59:22;;;;;;;11.45;7.85;;;;;;;6.56;81.74;99057.47;5093457;28;20051;-74
2021/03/11 01:01:48;;;;;;;11.27;7.10;;;;;;;6.70;80.50;99038.03;5089738;28;20109;-73
2021/03/11 01:04:15;;;;;;;9.93;7.05;;;;;;;6.69;80.82;99051.41;5079490;28;20063;-74
2021/03/11 01:06:41;;;;;;;11.38;8.23;;;;;;;6.70;81.26;99045.16;5075955;28;20516;-74
2021/03/11 01:09:07;;;;;;;8.70;6.70;;;;;;;6.73;80.95;99021.94;5042152;28;20048;-74
2021/03/11 01:11:34;;;;;;;11.93;7.03;;;;;;;6.73;80.62;99021.09;5076128;28;20053;-74
2021/03/11 01:14:00;;;;;;;8.70;6.38;;;;;;;6.74;80.62;99013.03;5058404;28;20044;-74
2021/03/11 01:16:27;;;;;;;12.43;6.18;;;;;;;6.73;80.87;99000.75;5057635;28;20044;-74
2021/03/11 01:18:53;;;;;;;10.55;6.97;;;;;;;6.78;80.73;99005.75;5058085;28;20048;-74
2021/03/11 01:21:20;;;;;;;13.23;7.00;;;;;;;6.74;80.94;98999.78;5076026;28;20075;-73
2021/03/11 01:23:46;;;;;;;12.13;7.63;;;;;;;6.75;81.34;98984.75;5075558;28;20422;-74
2021/03/11 01:26:12;;;;;;;7.95;6.25;;;;;;;6.75;81.15;98977.63;5058200;28;20106;-73
2021/03/11 01:28:38;;;;;;;8.27;5.63;;;;;;;6.78;81.19;98979.22;5075503;28;20090;-73
2021/03/11 01:31:04;;;;;;;8.15;5.85;;;;;;;6.76;80.65;98970.53;5074701;28;20055;-74
2021/03/11 01:33:30;;;;;;;8.82;5.70;;;;;;;6.80;80.97;98972.00;5075413;28;20059;-73
2021/03/11 01:35:57;;;;;;;8.40;6.28;;;;;;;6.82;80.86;98964.81;5075362;28;20059;-74
2021/03/11 01:38:23;;;;;;;8.82;5.63;;;;;;;6.81;81.18;98963.09;5057597;28;20400;-74
2021/03/11 01:40:49;;;;;;;8.93;5.20;;;;;;;6.83;81.20;98958.56;5075360;28;20065;-74
2021/03/11 01:43:15;;;;;;;8.10;5.22;;;;;;;6.87;80.76;98943.31;5075245;28;20063;-73
2021/03/11 01:45:42;;;;;;;7.82;5.60;;;;;;;6.84;80.86;98930.22;5075490;28;20052;-74
2021/03/11 01:48:08;;;;;;;7.35;4.88;;;;;;;6.88;80.46;98934.38;5041421;28;20402;-74
2021/03/11 01:50:34;;;;;;;6.85;4.95;;;;;;;6.88;80.43;98929.94;5075534;28;20098;-73
2021/03/11 01:53:01;;;;;;;8.75;5.25;;;;;;;6.89;80.57;98922.81;5057805;28;20376;-73
2021/03/11 01:55:31;;;;;;;6.30;4.57;;;;;;;6.99;80.35;98933.69;5075127;28;20053;-74
2021/03/11 01:57:57;;;;;;;6.17;4.77;;;;;;;6.99;80.01;98928.38;5075350;28;20102;-73
2021/03/11 02:00:24;;;;;;;5.68;4.38;;;;;;;7.03;80.57;98937.84;5092180;28;20048;-74
2021/03/11 02:02:51;;;;;;;4.97;3.88;;;;;;;7.04;80.27;98907.72;5095345;28;20062;-74
2021/03/11 02:05:19;;;;;;;5.70;4.63;;;;;;;7.01;80.15;98903.44;5077149;28;20152;-73
2021/03/11 02:07:46;;;;;;;6.65;4.35;;;;;;;7.03;80.62;98895.41;5095202;28;20113;-73
2021/03/11 02:10:19;;;;;;;5.00;3.70;;;;;;;6.99;80.47;98899.19;5077482;28;20051;-73
2021/03/11 02:13:10;;;;;;;5.68;4.55;;;;;;;7.04;80.47;98889.97;5095238;28;20059;-73
2021/03/11 02:15:44;;;;;;;8.10;3.90;;;;;;;7.05;80.29;98878.44;5094972;28;20041;-73
2021/03/11 02:18:20;;;;;;;5.53;4.00;;;;;;;7.06;80.08;98866.00;5094977;28;20069;-74
2021/03/11 02:20:52;;;;;;;4.82;3.25;;;;;;;7.05;80.36;98851.91;5077589;28;20132;-73
2021/03/11 02:23:31;;;;;;;5.90;4.10;;;;;;;7.10;80.65;98854.22;5095259;28;20371;-73
2021/03/11 02:26:23;;;;;;;5.97;4.22;;;;;;;7.02;80.67;98832.66;5095174;28;20375;-73
2021/03/11 02:28:55;;;;;;;5.13;3.72;;;;;;;7.15;80.80;98836.16;5097840;28;20048;-74
2021/03/11 02:31:22;;;;;;;6.32;4.18;;;;;;;7.19;80.60;98836.81;5098481;28;20044;-73
2021/03/11 02:33:52;;;;;;;5.05;3.72;;;;;;;7.20;80.93;98817.31;5081230;28;20408;-73
2021/03/11 02:36:20;;;;;;;5.82;4.07;;;;;;;7.21;81.10;98824.31;5081362;28;20064;-73
2021/03/11 02:38:47;;;;;;;5.10;4.00;;;;;;;7.19;80.94;98818.25;5081162;28;20380;-73
2021/03/11 02:41:16;;;;;;;5.93;4.25;;;;;;;7.18;81.14;98820.06;5099672;28;20059;-73
2021/03/11 02:43:46;;;;;;;5.97;4.43;;;;;;;7.05;81.20;98787.38;5100158;28;20340;-73
2021/03/11 02:46:15;;;;;;;6.97;3.85;;;;;;;7.19;81.80;98815.59;5100315;28;20105;-73
2021/03/11 02:48:44;;;;;;;7.20;4.90;;;;;;;7.18;81.63;98800.63;5098908;28;20044;-74
2021/03/11 02:51:11;;;;;;;6.78;4.57;;;;;;;7.17;81.95;98797.13;5099213;28;20059;-74
2021/03/11 02:53:39;;;;;;;6.72;4.40;;;;;;;7.17;82.34;98815.72;5099117;28;20077;-73
2021/03/11 02:56:06;;;;;;;7.72;4.72;;;;;;;7.16;82.78;98798.09;5099126;28;20051;-73
2021/03/11 02:58:33;;;;;;;6.55;5.03;;;;;;;7.12;83.17;98754.16;5098768;28;20044;-73
2021/03/11 03:01:00;;;;;;;6.70;5.65;;;;;;;7.12;83.56;98790.44;5097876;28;20048;-73
2021/03/11 03:03:29;;;;;;;7.95;5.65;;;;;;;7.10;84.51;98790.56;5098721;28;20060;-74
2021/03/11 03:05:57;;;;;;;8.70;6.35;;;;;;;7.07;84.95;98794.25;5098267;28;20109;-74
2021/03/11 03:08:25;;;;;;;9.25;6.22;;;;;;;6.96;85.94;98772.91;5098595;28;20305;-74
2021/03/11 03:10:53;;;;;;;7.95;6.28;;;;;;;6.97;86.14;98789.69;5080621;28;20060;-74
2021/03/11 03:13:20;;;;;;;9.43;6.82;;;;;;;6.92;86.72;98777.59;5098775;28;20048;-74
2021/03/11 03:15:48;;;;;;;8.80;7.03;;;;;;;6.88;87.10;98768.16;5098467;28;20052;-74
2021/03/11 03:18:16;;;;;;;8.13;6.35;;;;;;;6.87;86.81;98755.00;5098545;28;20395;-74
2021/03/11 03:20:44;;;;;;;9.82;6.75;;;;;;;6.96;86.40;98753.53;5098112;28;20101;-74
2021/03/11 03:23:10;;;;;;;9.95;6.97;;;;;;;6.99;86.45;98755.94;5080675;28;20066;-74
2021/03/11 03:25:47;;;;;;;9.57;6.80;;;;;;;7.04;85.91;98754.66;5098107;28;20113;-73
2021/03/11 03:28:14;;;;;;;9.60;6.85;;;;;;;7.04;86.13;98744.06;5098474;28;20055;-74
2021/03/11 03:30:40;;;;;;;10.00;6.90;;;;;;;7.05;86.37;98744.91;5098131;28;20146;-74
2021/03/11 03:33:07;;;;;;;9.15;6.68;;;;;;;7.07;86.32;98735.91;5098062;28;20074;-74
2021/03/11 03:35:34;;;;;;;10.85;6.07;;;;;;;6.91;86.06;98717.53;5097928;28;20051;-74
2021/03/11 03:38:01;;;;;;;10.60;6.82;;;;;;;7.00;86.39;98720.50;5098281;28;20052;-74
2021/03/11 03:40:27;;;;;;;9.15;6.93;;;;;;;7.02;87.08;98719.44;5079250;28;20117;-74
2021/03/11 03:43:00;;;;;;;9.50;7.05;;;;;;;7.02;86.56;98694.69;5098157;28;20048;-74
2021/03/11 03:45:32;;;;;;;9.05;6.57;;;;;;;7.02;86.76;98684.09;5098207;28;20075;-74
2021/03/11 03:48:03;;;;;;;8.32;6.45;;;;;;;7.04;86.53;98680.38;5097028;28;20052;-74
2021/03/11 03:50:31;;;;;;;9.63;6.63;;;;;;;7.02;86.50;98663.72;5098056;28;20055;-74
2021/03/11 03:52:59;;;;;;;8.45;5.60;;;;;;;7.07;86.64;98668.72;5097672;28;20059;-74
2021/03/11 03:55:27;;;;;;;7.20;5.53;;;;;;;7.05;86.45;98650.28;5079884;28;20048;-74
2021/03/11 03:57:56;;;;;;;8.02;5.63;;;;;;;7.07;86.54;98653.66;5097697;28;20054;-74
2021/03/11 04:00:26;;;;;;;8.38;5.80;;;;;;;7.05;86.50;98652.91;5097576;28;20059;-73
2021/03/11 04:02:54;;;;;;;7.03;5.53;;;;;;;7.14;86.25;98656.69;5097794;28;20326;-74
2021/03/11 04:05:22;;;;;;;6.80;5.13;;;;;;;7.26;86.16;98644.38;5097435;28;20407;-73
2021/03/11 04:07:50;;;;;;;6.65;4.65;;;;;;;7.40;85.62;98658.47;5097476;28;20499;-73
2021/03/11 04:10:16;;;;;;;8.48;5.75;;;;;;;7.48;85.00;98646.31;5097519;28;20349;-73
2021/03/11 04:12:43;;;;;;;7.65;5.05;;;;;;;7.45;84.61;98635.06;5097332;28;20092;-73
2021/03/11 04:15:11;;;;;;;9.05;5.80;;;;;;;7.46;84.82;98647.38;5097364;28;20051;-73
2021/03/11 04:17:37;;;;;;;7.47;5.55;;;;;;;7.43;84.70;98611.31;5079927;28;20136;-73
2021/03/11 04:20:05;;;;;;;7.72;5.43;;;;;;;7.45;84.87;98621.78;5079237;28;20310;-73
2021/03/11 04:22:33;;;;;;;6.50;5.57;;;;;;;7.47;84.84;98627.88;5097322;28;20056;-74
2021/03/11 04:24:59;;;;;;;7.30;5.07;;;;;;;7.51;84.78;98629.31;5096030;28;20048;-74
2021/03/11 04:27:27;;;;;;;6.85;5.50;;;;;;;7.56;84.74;98628.97;5097113;28;20421;-74
2021/03/11 04:29:53;;;;;;;7.90;5.85;;;;;;;7.59;84.71;98623.47;5097025;28;20063;-73
2021/03/11 04:32:21;;;;;;;9.40;5.93;;;;;;;7.57;84.61;98617.41;5097926;28;20059;-71
2021/03/11 04:34:48;;;;;;;7.13;5.25;;;;;;;7.58;84.76;98605.84;5095973;28;20055;-74
2021/03/11 04:37:15;;;;;;;8.15;6.15;;;;;;;7.67;84.11;98591.03;5095518;28;20054;-73
2021/03/11 04:39:42;;;;;;;7.60;5.60;;;;;;;7.65;83.92;98569.91;5096722;28;20044;-74
2021/03/11 04:42:09;;;;;;;8.55;6.30;;;;;;;7.72;84.02;98599.50;5096614;28;20113;-73
2021/03/11 04:44:35;;;;;;;11.30;5.75;;;;;;;7.70;84.15;98596.09;5062396;28;20058;-74
2021/03/11 04:47:02;;;;;;;8.80;5.90;;;;;;;7.80;83.70;98593.63;5096708;28;20051;-74
2021/03/11 04:49:31;;;;;;;8.45;6.13;;;;;;;7.78;83.65;98598.19;5096818;28;20127;-73
2021/03/11 04:51:59;;;;;;;8.77;5.72;;;;;;;7.83;83.45;98604.00;5095418;28;20052;-73
2021/03/11 04:54:25;;;;;;;7.03;5.60;;;;;;;7.94;83.20;98604.03;5096522;28;20048;-73
2021/03/11 04:56:53;;;;;;;10.05;5.70;;;;;;;7.94;82.86;98597.88;5096769;28;20048;-73
2021/03/11 04:59:21;;;;;;;7.68;5.68;;;;;;;7.96;82.98;98593.31;5096639;28;20052;-73
2021/03/11 05:01:55;;;;;;;8.63;5.40;;;;;;;8.01;82.75;98593.81;5078699;28;20063;-74
2021/03/11 05:04:22;;;;;;;8.82;5.97;;;;;;;8.03;82.73;98602.50;5078571;28;20091;-73
2021/03/11 05:06:49;;;;;;;7.47;5.10;;;;;;;8.08;82.68;98588.88;5097501;28;20121;-73
2021/03/11 05:09:15;;;;;;;6.32;5.22;;;;;;;7.98;82.63;98567.47;5097380;28;20372;-73
2021/03/11 05:11:42;;;;;;;6.70;4.85;;;;;;;8.06;84.00;98604.09;5096875;28;20052;-73
2021/03/11 05:14:08;;;;;;;7.30;5.13;;;;;;;7.95;84.91;98612.88;5095137;28;20453;-74
2021/03/11 05:16:34;;;;;;;6.53;4.22;;;;;;;7.83;85.95;98604.00;5096009;28;20055;-73
2021/03/11 05:19:01;;;;;;;10.68;5.78;;;;;;;7.67;87.97;98575.94;5095957;28;20040;-75
2021/03/11 05:21:27;;;;;;;6.60;5.18;;;;;;;7.45;88.28;98548.34;5095868;28;20078;-72
2021/03/11 05:23:57;;;;;;;7.03;5.53;;;;;;;7.51;88.52;98554.97;5096206;28;20086;-75
2021/03/11 05:26:24;;;;;;;9.95;6.78;;;;;;;7.51;88.54;98549.66;5078254;28;20108;-73
2021/03/11 05:28:51;;;;;;;5.72;4.80;;;;;;;7.56;88.21;98574.06;5096041;28;20055;-73
2021/03/11 05:31:17;;;;;;;6.40;5.00;;;;;;;7.65;87.80;98555.75;5094689;28;20048;-73
2021/03/11 05:33:43;;;;;;;7.85;4.65;;;;;;;7.66;87.34;98563.63;5095778;28;20433;-73
2021/03/11 05:36:10;;;;;;;6.63;4.90;;;;;;;7.73;87.24;98562.19;5095543;28;20396;-73
2021/03/11 05:38:36;;;;;;;6.93;5.10;;;;;;;7.80;87.29;98575.84;5077841;28;20048;-74
2021/03/11 05:41:04;;;;;;;7.10;4.68;;;;;;;7.82;86.95;98586.38;5095626;28;20369;-74
2021/03/11 05:43:34;;;;;;;8.60;5.20;;;;;;;7.46;87.21;98515.50;5095685;28;20079;-74
2021/03/11 05:46:02;;;;;;;7.63;5.35;;;;;;;7.94;86.79;98579.28;5095599;28;20060;-74
2021/03/11 05:48:32;;;;;;;7.47;5.00;;;;;;;8.02;86.00;98579.56;5095325;28;20044;-74
2021/03/11 05:51:01;;;;;;;6.43;4.70;;;;;;;8.02;86.15;98569.75;5078382;28;20109;-74
2021/03/11 05:53:30;;;;;;;7.03;5.70;;;;;;;8.05;86.39;98568.69;5077568;28;20084;-74
2021/03/11 05:55:57;;;;;;;6.93;5.30;;;;;;;8.05;86.31;98567.84;5095670;28;20059;-73
2021/03/11 05:58:23;;;;;;;6.03;4.80;;;;;;;8.14;85.93;98573.31;5096018;28;20058;-73
2021/03/11 06:00:49;;;;;;;7.75;5.13;;;;;;;8.18;85.74;98573.94;5096310;28;20052;-73
2021/03/11 06:03:16;;;;;;;7.97;5.60;;;;;;;8.16;86.24;98551.91;5096308;28;20074;-73
2021/03/11 06:05:45;;;;;;;8.23;6.10;;;;;;;8.21;86.12;98548.91;5095574;28;20064;-73
2021/03/11 06:08:11;;;;;;;6.85;5.22;;;;;;;8.26;85.88;98533.44;5095349;28;20437;-74
2021/03/11 06:10:39;;;;;;;7.47;5.78;;;;;;;8.29;85.61;98538.53;5095400;28;20052;-73
2021/03/11 06:13:08;;;;;;;7.80;5.20;;;;;;;8.31;85.82;98520.66;5077509;28;20451;-74
2021/03/11 06:15:39;;;;;;;8.02;5.63;;;;;;;8.39;85.01;98530.69;5095787;28;20071;-73
2021/03/11 06:18:07;;;;;;;8.02;5.68;;;;;;;8.48;84.55;98543.25;5094971;28;20127;-73
2021/03/11 06:20:34;;;;;;;8.60;5.75;;;;;;;8.48;84.20;98507.84;5078517;28;20051;-73
2021/03/11 06:23:00;;;;;;;6.47;5.40;;;;;;;8.55;84.29;98515.25;5095592;28;20055;-71
2021/03/11 06:25:28;;;;;;;8.07;5.88;;;;;;;8.59;84.13;98517.66;5095170;28;20056;-74
2021/03/11 06:27:59;;;;;;;9.57;5.85;;;;;;;8.55;84.38;98525.88;5078287;28;20071;-76
2021/03/11 06:30:37;;;;;;;7.55;5.32;;;;;;;8.55;84.52;98517.91;5077506;28;20137;-73
2021/03/11 06:33:05;;;;;;;8.45;5.32;;;;;;;8.65;84.61;98514.50;5095360;28;20131;-75
2021/03/11 06:35:39;;;;;;;7.97;5.97;;;;;;;8.63;85.31;98537.72;5095396;28;20047;-75
2021/03/11 06:38:05;;;;;;;7.60;5.75;;;;;;;8.63;85.87;98516.44;5095172;28;20429;-74
2021/03/11 06:40:31;;;;;;;7.50;5.45;;;;;;;8.54;85.90;98505.59;5077412;28;20044;-74
2021/03/11 06:43:11;;;;;;;12.35;6.20;;;;;;;8.63;85.75;98509.34;5093943;28;20056;-75
2021/03/11 06:45:38;;;;;;;6.10;4.95;;;;;;;8.62;85.92;98502.31;5095261;28;20056;-74
2021/03/11 06:48:26;;;;;;;6.90;5.45;;;;;;;8.62;85.27;98520.94;5077280;28;20429;-77
2021/03/11 06:50:56;;;;;;;6.10;4.40;;;;;;;8.59;85.46;98470.63;5077146;28;20044;-73
2021/03/11 06:53:22;;;;;;;7.88;5.03;;;;;;;8.74;85.31;98499.63;5094082;28;20349;-75
2021/03/11 06:55:48;;;;;;;6.47;4.70;;;;;;;8.75;85.46;98496.84;5094829;28;20052;-73
2021/03/11 06:58:26;;;;;;;7.78;5.35;;;;;;;8.72;85.81;98483.78;5094123;28;20050;-73
2021/03/11 07:01:06;;;;;;;10.95;5.13;;;;;;;8.76;85.44;98490.56;5094351;28;20138;-71
2021/03/11 07:03:40;;;;;;;6.53;4.37;;;;;;;8.80;85.50;98494.69;5094299;28;20411;-75
2021/03/11 07:06:07;;;;;;;7.00;4.90;;;;;;;8.85;85.16;98504.94;5094327;28;20052;-73
2021/03/11 07:08:47;;;;;;;6.13;4.63;;;;;;;8.82;84.85;98492.72;5094127;28;20052;-72
2021/03/11 07:11:18;;;;;;;7.30;4.68;;;;;;;8.94;84.61;98501.53;5076549;28;20086;-73
2021/03/11 07:13:45;;;;;;;7.75;4.80;;;;;;;8.94;84.91;98492.72;5094293;28;20058;-74
2021/03/11 07:16:22;;;;;;;8.07;4.10;;;;;;;9.00;84.60;98494.88;5096965;28;20071;-73
2021/03/11 07:19:08;;;;;;;8.23;5.00;;;;;;;9.05;84.33;98498.00;5096873;28;20044;-75
2021/03/11 07:21:48;;;;;;;7.32;4.68;;;;;;;8.98;84.92;98474.69;5097933;28;20345;-71
2021/03/11 07:24:32;;;;;;;7.30;4.65;;;;;;;9.05;84.67;98482.03;5097021;28;20048;-71
2021/03/11 07:27:00;;;;;;;6.68;4.65;;;;;;;8.96;85.08;98450.84;5097378;28;20105;-72
2021/03/11 07:29:26;;;;;;;6.57;4.40;;;;;;;9.03;85.08;98456.50;5096024;28;20421;-72
2021/03/11 07:31:57;;;;;;;6.38;4.38;;;;;;;9.07;84.81;98458.81;5097285;28;20062;-71
2021/03/11 07:34:33;;;;;;;6.68;4.15;;;;;;;9.08;84.93;98446.34;5098116;28;20051;-72
2021/03/11 07:37:00;;;;;;;7.40;4.60;;;;;;;9.23;84.31;98462.84;5081458;28;20055;-71
2021/03/11 07:39:33;;;;;;;8.48;4.28;;;;;;;9.37;83.87;98462.56;5097569;28;20150;-71
2021/03/11 07:42:01;;;;;;;7.43;3.42;;;;;;;9.55;82.72;98472.66;5097847;28;20353;-73
2021/03/11 07:44:29;;;;;;;10.38;4.13;;;;;;;9.54;84.94;98473.63;5080090;28;20131;-72
2021/03/11 07:46:55;;;;;;;9.75;4.40;;;;;;;9.27;87.48;98458.97;5097565;28;20048;-73
2021/03/11 07:49:21;;;;;;;9.85;3.30;;;;;;;8.92;91.42;98486.66;5096551;28;20056;-71
2021/03/11 07:51:49;;;;;;;9.27;3.85;;;;;;;8.56;93.28;98444.31;5097669;28;20146;-72
2021/03/11 07:54:17;;;;;;;11.48;4.15;;;;;;;8.55;94.46;98487.81;5097798;28;20143;-72
2021/03/11 07:56:43;;;;;;;5.68;4.28;;;;;;;8.45;95.91;98476.19;5097968;28;20105;-71
2021/03/11 07:59:11;;;;;;;6.88;4.55;;;;;;;8.39;97.39;98465.06;5097470;28;20052;-72
2021/03/11 08:01:47;;;;;;;8.85;5.47;;;;;;;8.35;97.47;98465.44;5097839;28;20182;-71
2021/03/11 08:04:21;;;;;;;10.07;5.28;;;;;;;8.35;97.52;98466.28;5097274;28;20121;-71
2021/03/11 08:06:48;;;;;;;7.63;5.10;;;;;;;8.25;97.71;98463.50;5097905;28;20050;-72
2021/03/11 08:09:35;;;;;;;9.90;5.78;;;;;;;8.31;98.46;98458.66;5079692;28;20055;-72
2021/03/11 08:12:37;;;;;;;8.20;5.57;;;;;;;8.32;99.02;98463.03;5097502;28;20059;-76
2021/03/11 08:15:26;;;;;;;11.85;5.57;;;;;;;8.36;98.07;98451.16;5097337;28;20051;-73
2021/03/11 08:17:54;;;;;;;11.40;5.50;;;;;;;8.39;98.80;98442.97;5079269;28;20517;-73
2021/03/11 08:20:24;;;;;;;8.23;5.38;;;;;;;8.41;98.27;98446.34;5079679;28;20131;-73
2021/03/11 08:22:55;;;;;;;7.25;5.10;;;;;;;8.47;98.44;98447.66;5096222;28;20052;-73
2021/03/11 08:25:24;;;;;;;8.38;5.15;;;;;;;8.52;98.11;98448.16;5097304;28;20378;-74
2021/03/11 08:27:53;;;;;;;6.65;4.65;;;;;;;8.49;98.26;98459.88;5097153;28;20048;-74
2021/03/11 08:30:41;;;;;;;8.00;5.22;;;;;;;8.50;99.12;98482.00;5096981;28;20067;-74
2021/03/11 08:33:09;;;;;;;10.43;5.28;;;;;;;8.37;99.78;98496.25;5097258;28;20352;-75
2021/03/11 08:35:44;;;;;;;9.50;3.88;;;;;;;8.28;99.18;98508.44;5079368;28;20044;-74
2021/03/11 08:38:19;;;;;;;10.88;2.50;;;;;;;8.02;97.06;98519.28;5097171;28;20051;-74
2021/03/11 08:40:53;;;;;;;9.98;1.95;;;;;;;7.87;99.15;98516.00;5096718;28;20116;-74
2021/03/11 08:43:41;;;;;;;9.75;1.85;;;;;;;7.85;97.02;98488.69;5097260;28;20380;-75
2021/03/11 08:46:11;;;;;;;9.63;2.03;;;;;;;7.85;95.52;98519.75;5096616;28;20452;-74
2021/03/11 08:48:41;;;;;;;15.35;2.53;;;;;;;7.80;96.29;98505.97;5096756;28;20052;-76
2021/03/11 08:51:09;;;;;;;;;;;;;;;7.90;94.36;98533.50;5097195;28;20118;-74
2021/03/11 08:53:35;;;;;;;10.55;2.50;;;;;;;7.92;94.11;98518.31;5096859;28;19924;-75
2021/03/11 08:56:17;;;;;;;16.80;3.75;;;;;;;7.96;94.58;98519.75;5092124;28;20051;-76
2021/03/11 08:59:05;;;;;;;19.63;2.72;;;;;;;7.96;94.20;98506.47;5077966;28;20040;-75
2021/03/11 09:01:43;;;;;;;16.55;2.80;;;;;;;7.98;92.31;98504.56;5091101;28;20056;-75
2021/03/11 09:04:27;;;;;;;25.35;3.38;;;;;;;7.88;92.26;98528.31;5076669;28;20067;-75
2021/03/11 09:07:01;;;;;;;28.98;3.00;;;;;;;7.83;91.74;98519.00;5076114;28;20708;-75
2021/03/11 09:09:31;;;;;;;16.17;3.22;;;;;;;7.88;92.39;98522.16;5076245;28;20049;-75
2021/03/11 09:11:57;;;;;;;19.08;3.28;;;;;;;7.89;90.69;98505.25;5076180;28;20084;-76
2021/03/11 09:14:25;;;;;;;20.17;3.35;;;;;;;7.93;90.59;98505.84;5075836;28;20052;-76
2021/03/11 09:16:51;;;;;;;23.90;2.97;;;;;;;7.91;89.58;98492.72;5075756;28;20106;-76
2021/03/11 09:19:18;;;;;;;18.10;4.45;;;;;;;7.99;89.13;98489.44;5075660;28;20063;-76
2021/03/11 09:21:45;;;;;;;17.40;2.92;;;;;;;8.11;90.75;98495.63;5074294;28;20117;-76
2021/03/11 09:24:18;;;;;;;16.60;2.65;;;;;;;8.32;88.24;98500.25;5089544;28;20063;-77
2021/03/11 09:26:45;;;;;;;18.00;3.72;;;;;;;8.42;88.77;98503.84;5116392;28;20058;-76
2021/03/11 09:29:12;;;;;;;19.23;3.33;;;;;;;8.59;87.11;98496.38;5116287;28;20058;-76
2021/03/11 09:31:39;;;;;;;16.25;3.00;;;;;;;8.66;88.90;98503.75;5114219;28;20437;-76
2021/03/11 09:34:05;;;;;;;18.90;3.72;;;;;;;8.81;87.50;98501.69;5101757;28;20452;-76
2021/03/11 09:36:32;;;;;;;20.17;2.72;;;;;;;8.91;86.45;98507.13;5095033;28;20043;-77
2021/03/11 09:39:04;;;;;;;13.55;2.90;;;;;;;9.07;84.52;98514.69;5074835;28;20056;-77
2021/03/11 09:41:31;;;;;;;16.80;3.55;;;;;;;9.13;83.99;98512.50;5075633;28;20048;-76
2021/03/11 09:44:06;;;;;;;14.45;4.03;;;;;;;9.16;86.61;98497.09;5075434;28;20521;-76
2021/03/11 09:46:33;;;;;;;11.75;2.00;;;;;;;9.36;82.41;98479.50;5074536;28;20056;-76
2021/03/11 09:49:00;;;;;;;13.25;2.67;;;;;;;9.45;82.94;98493.03;5074400;28;20495;-77
2021/03/11 09:51:32;;;;;;;16.73;2.97;;;;;;;9.20;84.01;98463.09;5074401;28;20128;-76
2021/03/11 09:54:04;;;;;;;11.65;2.45;;;;;;;9.49;84.08;98476.66;5075527;28;20106;-76
2021/03/11 09:56:31;;;;;;;12.98;3.85;;;;;;;9.46;83.92;98478.72;5113732;28;20048;-77
2021/03/11 09:59:04;;;;;;;11.70;2.35;;;;;;;9.51;82.03;98465.88;5105370;28;20185;-76
2021/03/11 10:01:33;;;;;;;15.80;2.38;;;;;;;9.61;81.37;98485.44;5095020;28;20086;-77
2021/03/11 10:04:01;;;;;;;14.13;2.78;;;;;;;9.63;80.90;98480.84;5106756;28;20158;-76
2021/03/11 10:06:29;;;;;;;12.65;2.28;;;;;;;9.79;81.58;98474.19;5093907;28;20185;-77
2021/03/11 10:08:59;;;;;;;11.98;2.53;;;;;;;9.80;80.74;98475.88;5077588;28;20052;-76
2021/03/11 10:11:33;;;;;;;13.90;3.25;;;;;;;9.96;79.54;98485.25;5095523;28;20383;-76
2021/03/11 10:14:02;;;;;;;12.55;2.63;;;;;;;10.17;78.68;98483.41;5094182;28;20083;-76
2021/03/11 10:16:31;;;;;;;9.35;2.80;;;;;;;10.22;77.33;98475.00;5095428;28;20097;-75
2021/03/11 10:18:58;;;;;;;12.45;2.45;;;;;;;10.23;78.78;98471.34;5090319;28;20067;-77
2021/03/11 10:21:25;;;;;;;12.00;2.72;;;;;;;10.38;76.21;98476.31;5088961;28;20047;-76
2021/03/11 10:23:51;;;;;;;11.07;2.10;;;;;;;10.46;73.11;98492.53;5094568;28;20060;-75
2021/03/11 10:26:19;;;;;;;11.65;2.33;;;;;;;10.56;71.80;98500.56;5094712;28;20062;-76
2021/03/11 10:28:47;;;;;;;12.65;2.47;;;;;;;10.66;71.96;98477.44;5077760;28;20319;-76
2021/03/11 10:31:14;;;;;;;11.50;2.55;;;;;;;10.78;71.41;98469.34;5095147;28;20062;-76
2021/03/11 10:33:41;;;;;;;21.02;3.72;;;;;;;10.86;70.27;98483.66;5112201;28;20130;-76
2021/03/11 10:36:14;;;;;;;18.77;3.05;;;;;;;10.96;67.81;98478.34;5114627;28;20059;-75
2021/03/11 10:38:40;;;;;;;17.35;3.17;;;;;;;11.06;69.10;98478.34;5103264;28;20048;-76
2021/03/11 10:41:12;;;;;;;19.63;2.90;;;;;;;11.23;66.89;98497.38;5094826;28;20430;-76
2021/03/11 10:43:40;;;;;;;21.60;4.63;;;;;;;11.12;63.75;98501.84;5077458;28;20063;-75
2021/03/11 10:46:06;;;;;;;16.27;3.00;;;;;;;11.12;64.03;98488.47;5077632;28;20151;-75
2021/03/11 10:48:50;;;;;;;19.38;3.60;;;;;;;11.13;66.70;98490.16;5077464;28;20094;-77
2021/03/11 10:51:17;;;;;;;21.42;3.63;;;;;;;11.23;63.54;98484.84;5097262;28;20048;-77
2021/03/11 10:53:44;;;;;;;22.02;3.88;;;;;;;11.36;63.42;98478.38;5099042;28;20444;-77
2021/03/11 10:56:11;;;;;;;16.67;3.85;;;;;;;11.37;62.71;98480.06;5077515;28;20060;-76
2021/03/11 10:58:38;;;;;;;21.92;3.22;;;;;;;11.42;61.11;98496.53;5092185;28;20052;-75
2021/03/11 11:01:19;;;;;;;20.80;4.47;;;;;;;11.48;61.13;98487.09;5096253;28;20045;-75
2021/03/11 11:03:47;;;;;;;22.83;3.35;;;;;;;11.53;60.48;98499.06;5110732;28;20284;-75
2021/03/11 11:06:14;;;;;;;21.17;3.53;;;;;;;11.61;59.85;98489.50;5118960;28;20059;-76
2021/03/11 11:08:44;;;;;;;20.10;3.53;;;;;;;11.75;61.73;98520.28;5110134;28;20044;-77
2021/03/11 11:11:12;;;;;;;19.45;3.70;;;;;;;11.81;57.84;98499.19;5097335;28;20135;-78
2021/03/11 11:13:38;;;;;;;23.25;4.05;;;;;;;11.80;59.39;98518.03;5098585;28;20048;-78
2021/03/11 11:16:05;;;;;;;13.95;3.97;;;;;;;11.77;58.75;98489.75;5098376;28;20134;-79
2021/03/11 11:18:32;;;;;;;18.73;3.42;;;;;;;11.58;58.47;98508.47;5098605;28;20062;-78
2021/03/11 11:21:00;;;;;;;19.67;3.75;;;;;;;11.74;58.02;98508.75;5080696;28;20144;-77
2021/03/11 11:23:27;;;;;;;20.45;4.18;;;;;;;11.75;57.83;98494.41;5098427;28;20384;-76
2021/03/11 11:25:53;;;;;;;18.17;3.75;;;;;;;11.77;57.57;98471.03;5088229;28;20071;-76
2021/03/11 11:28:19;;;;;;;23.52;3.50;;;;;;;12.07;56.96;98498.59;5097563;28;20056;-75
2021/03/11 11:30:45;;;;;;;25.20;4.30;;;;;;;12.19;55.79;98514.47;5098053;28;20048;-75
2021/03/11 11:33:16;;;;;;;16.75;3.53;;;;;;;12.23;56.82;98556.00;5092002;28;20135;-76
2021/03/11 11:35:42;;;;;;;19.35;3.38;;;;;;;12.29;56.57;98504.59;5107118;28;20055;-75
2021/03/11 11:38:08;;;;;;;17.77;3.60;;;;;;;12.53;57.12;98503.22;5081387;28;20051;-77
2021/03/11 11:40:35;;;;;;;22.38;4.15;;;;;;;12.55;57.14;98503.09;5077855;28;20053;-77
2021/03/11 11:43:02;;;;;;;15.73;3.85;;;;;;;12.46;56.75;98519.03;5077434;28;20059;-76
2021/03/11 11:45:30;;;;;;;33.00;6.82;;;;;;;12.21;56.76;98533.91;5077880;28;20056;-76